Zealand Delilah — PBZI — position and weather

sailwx.info

Track history (hours):
 
Tides and Currents Weather Stations Pressure Air Temp Water Temp Dewpoint Dewpoint Depression Visibility Wind Speed Wind Dir Waves Ship Positions

Zealand Delilah

Last reported at 2017-Jun-23 14:36 UTC. Time now 2017-Jun-23 15:30 UTC.
Position N 41°45' E 016°49'.

Length 134 m; draft 5.6 m.

Type: Ship. MMSI: 245935000.

Date/timePositionNaut miles runAvg speedWind from/ knotsBaromVisibWave heightAir tempDewpointWater temp
2017-Jun-23 14:36N 41°45' E 016°49'712.1
2017-Jun-23 14:00N 41°50' E 016°42'813.3
2017-Jun-23 13:23N 41°55' E 016°33'513.3
2017-Jun-23 13:00N 41°59' E 016°28'713.1
2017-Jun-23 12:30N 42°03' E 016°22'612.9
2017-Jun-23 12:00N 42°08' E 016°16'712.8
2017-Jun-23 11:29N 42°13' E 016°10'613.0
2017-Jun-23 11:00N 42°18' E 016°04'713.1
2017-Jun-23 10:30N 42°23' E 015°58'712.9
2017-Jun-23 09:59N 42°27' E 015°52'713.1
2017-Jun-23 09:28N 42°32' E 015°46'613.3
2017-Jun-23 08:59N 42°37' E 015°40'613.3
2017-Jun-23 08:30N 42°42' E 015°35'713.3
2017-Jun-23 08:00N 42°47' E 015°29'1013.2
2017-Jun-23 07:15N 42°55' E 015°21'513.3
2017-Jun-23 06:51N 42°59' E 015°16'413.1
2017-Jun-23 06:30N 43°03' E 015°12'812.9
2017-Jun-23 05:52N 43°09' E 015°05'513.1
2017-Jun-23 05:29N 43°13' E 015°01'713.1
2017-Jun-23 04:57N 43°18' E 014°55'613.1
2017-Jun-23 04:30N 43°23' E 014°50'713.0
2017-Jun-23 03:59N 43°28' E 014°44'612.9
2017-Jun-23 03:30N 43°33' E 014°38'612.8
2017-Jun-23 03:00N 43°38' E 014°33'612.8
2017-Jun-23 02:30N 43°43' E 014°27'712.7
2017-Jun-23 01:59N 43°48' E 014°22'612.8
2017-Jun-23 01:29N 43°53' E 014°16'712.8
2017-Jun-23 00:58N 43°58' E 014°10'612.9
2017-Jun-23 00:30N 44°03' E 014°05'713.1
2017-Jun-22 23:59N 44°08' E 013°60'813.3
2017-Jun-22 23:21N 44°15' E 013°53'1613.4
2017-Jun-22 22:12N 44°28' E 013°41'313.5
2017-Jun-22 22:00N 44°31' E 013°39'813.6
2017-Jun-22 21:25N 44°37' E 013°33'613.3
2017-Jun-22 21:00N 44°42' E 013°29'713.4
2017-Jun-22 20:31N 44°47' E 013°24'713.1
2017-Jun-22 20:01N 44°53' E 013°19'713.0
2017-Jun-22 19:30N 44°58' E 013°14'713.1
2017-Jun-22 19:00N 45°04' E 013°09'612.9
2017-Jun-22 18:31N 45°09' E 013°04'713.1
2017-Jun-22 18:01N 45°16' E 013°02'612.1
2017-Jun-22 17:30N 45°22' E 013°02'613.0
2017-Jun-22 17:00N 45°27' E 013°08'612.9
2017-Jun-22 16:30N 45°31' E 013°14'612.5
2017-Jun-22 16:00N 45°35' E 013°22'612.9
2017-Jun-22 15:30N 45°37' E 013°30'611.8
2017-Jun-22 15:00N 45°41' E 013°37'510.5
2017-Jun-22 14:30N 45°46' E 013°34'1 1.3
2017-Jun-22 13:26N 45°47' E 013°33'0 0.0
2017-Jun-22 12:56N 45°47' E 013°33'0 0.0
2017-Jun-22 12:29N 45°47' E 013°33'0 0.0
2017-Jun-22 11:56N 45°47' E 013°33'0 0.0
2017-Jun-22 11:29N 45°47' E 013°33'0 0.0
2017-Jun-22 10:59N 45°47' E 013°33'0 0.0
2017-Jun-22 10:26N 45°47' E 013°33'0 0.0
2017-Jun-22 09:59N 45°47' E 013°33'0 0.0
2017-Jun-22 09:29N 45°47' E 013°33'0 0.0
2017-Jun-22 08:56N 45°47' E 013°33'0 0.0
2017-Jun-22 08:29N 45°47' E 013°33'0 0.0
2017-Jun-22 07:59N 45°47' E 013°33'0 0.0
2017-Jun-21 23:35N 45°47' E 013°33'0 0.0
2017-Jun-21 23:29N 45°47' E 013°33'0 0.0
2017-Jun-21 22:56N 45°47' E 013°33'0 0.0
2017-Jun-21 22:26N 45°47' E 013°33'0 0.0
2017-Jun-21 21:59N 45°47' E 013°33'0 0.0
2017-Jun-21 21:29N 45°47' E 013°33'0 0.0
2017-Jun-21 20:53N 45°47' E 013°33'0 0.0
2017-Jun-21 20:29N 45°47' E 013°33'0 0.0
2017-Jun-21 19:56N 45°47' E 013°33'0 0.0
2017-Jun-21 19:29N 45°47' E 013°33'0 0.0
2017-Jun-21 18:59N 45°47' E 013°33'0 0.0
2017-Jun-21 18:29N 45°47' E 013°33'0 0.0
2017-Jun-21 17:56N 45°47' E 013°33'0 0.0
2017-Jun-21 17:29N 45°47' E 013°33'0 0.0
2017-Jun-21 16:59N 45°47' E 013°33'0 0.0
2017-Jun-21 16:29N 45°47' E 013°33'0 0.0
2017-Jun-21 15:59N 45°47' E 013°33'0 0.0
2017-Jun-21 15:26N 45°47' E 013°33'0 0.0
2017-Jun-21 14:53N 45°47' E 013°33'0 0.0
2017-Jun-21 13:59N 45°47' E 013°33'0 0.0
2017-Jun-21 13:29N 45°47' E 013°33'0 0.0
2017-Jun-21 12:53N 45°47' E 013°33'0 0.0
2017-Jun-21 12:26N 45°47' E 013°33'0 0.0
2017-Jun-21 11:50N 45°47' E 013°33'0 0.0
2017-Jun-21 11:29N 45°47' E 013°33'0 0.0
2017-Jun-21 10:59N 45°47' E 013°33'0 0.0
2017-Jun-21 10:29N 45°47' E 013°33'0 0.0
2017-Jun-21 09:56N 45°47' E 013°33'0 0.0
2017-Jun-21 09:29N 45°47' E 013°33'0 0.0
2017-Jun-21 08:59N 45°47' E 013°33'0 0.0
2017-Jun-21 08:29N 45°47' E 013°33'0 0.0
2017-Jun-21 07:56N 45°47' E 013°33'0 0.0
2017-Jun-21 07:29N 45°47' E 013°33'0 0.0
2017-Jun-21 06:53N 45°47' E 013°33'0 0.0
2017-Jun-21 06:29N 45°47' E 013°33'0 0.0
2017-Jun-21 05:59N 45°47' E 013°33'0 0.0
2017-Jun-21 05:26N 45°47' E 013°33'0 0.0
2017-Jun-21 04:59N 45°47' E 013°33'0 0.0
2017-Jun-21 04:29N 45°47' E 013°33'0 0.0
2017-Jun-21 03:59N 45°47' E 013°33'0 0.0
2017-Jun-21 03:26N 45°47' E 013°33'0 0.0
2017-Jun-21 02:50N 45°47' E 013°33'0 0.0
2017-Jun-21 02:29N 45°47' E 013°33'0 0.0
2017-Jun-21 01:59N 45°47' E 013°33'0 0.0
2017-Jun-21 01:29N 45°47' E 013°33'0 0.0
2017-Jun-21 00:53N 45°47' E 013°33'0 0.0
2017-Jun-21 00:29N 45°47' E 013°33'0 0.0
2017-Jun-20 23:59N 45°47' E 013°33'0 0.0
2017-Jun-20 23:29N 45°47' E 013°33'0 0.0
2017-Jun-20 22:56N 45°47' E 013°33'0 0.0
2017-Jun-20 22:29N 45°47' E 013°33'0 0.0
2017-Jun-20 21:59N 45°47' E 013°33'0 0.0
2017-Jun-20 21:29N 45°47' E 013°33'0 0.0
2017-Jun-20 20:56N 45°47' E 013°33'0 0.0
2017-Jun-20 20:26N 45°47' E 013°33'0 0.0
2017-Jun-20 19:59N 45°47' E 013°33'0 0.0
2017-Jun-20 19:23N 45°47' E 013°33'0 0.0
2017-Jun-20 18:56N 45°47' E 013°33'0 0.0
2017-Jun-20 18:29N 45°47' E 013°33'0 0.0
2017-Jun-20 17:59N 45°47' E 013°33'0 0.0
2017-Jun-20 17:26N 45°47' E 013°33'0 0.0
2017-Jun-20 16:56N 45°47' E 013°33'0 0.0
2017-Jun-20 16:23N 45°47' E 013°33'0 0.0
2017-Jun-20 15:56N 45°47' E 013°33'0 0.0
2017-Jun-20 15:26N 45°47' E 013°33'0 0.0
2017-Jun-20 14:56N 45°47' E 013°33'0 0.0
2017-Jun-20 13:56N 45°47' E 013°33'0 0.0
2017-Jun-20 13:29N 45°47' E 013°33'0 0.0
2017-Jun-20 12:59N 45°47' E 013°33'0 0.0
2017-Jun-20 12:29N 45°47' E 013°33'0 0.0
2017-Jun-20 11:56N 45°47' E 013°33'0 0.0
2017-Jun-20 11:29N 45°47' E 013°33'0 0.0
2017-Jun-20 10:59N 45°47' E 013°33'0 0.0
2017-Jun-20 10:29N 45°47' E 013°33'0 0.0
2017-Jun-20 09:59N 45°47' E 013°33'0 0.0
2017-Jun-20 09:23N 45°47' E 013°33'0 0.0
2017-Jun-20 08:56N 45°47' E 013°33'0 0.0
2017-Jun-20 08:26N 45°47' E 013°33'0 0.0
2017-Jun-20 07:59N 45°47' E 013°33'0 0.0
2017-Jun-20 07:29N 45°47' E 013°33'0 0.0
2017-Jun-20 06:56N 45°47' E 013°33'0 0.0
2017-Jun-20 06:29N 45°47' E 013°33'0 0.0
2017-Jun-20 05:59N 45°47' E 013°33'0 0.0
2017-Jun-20 05:26N 45°47' E 013°33'0 0.0
2017-Jun-20 04:56N 45°47' E 013°33'0 0.0
2017-Jun-20 04:26N 45°47' E 013°33'0 0.0
2017-Jun-20 03:50N 45°47' E 013°33'0 0.0
2017-Jun-20 03:23N 45°47' E 013°33'0 0.0
2017-Jun-20 02:44N 45°47' E 013°33'0 0.0
2017-Jun-20 02:28N 45°47' E 013°33'0 0.0
2017-Jun-20 01:58N 45°47' E 013°33'0 0.0
2017-Jun-20 01:30N 45°47' E 013°33'0 0.0
2017-Jun-20 00:56N 45°47' E 013°33'0 0.0
2017-Jun-20 00:26N 45°47' E 013°33'0 0.0
2017-Jun-19 23:59N 45°47' E 013°33'0 0.0
2017-Jun-19 23:29N 45°47' E 013°33'0 0.0
2017-Jun-19 22:56N 45°47' E 013°33'0 0.0
2017-Jun-19 22:29N 45°47' E 013°33'0 0.0
2017-Jun-19 21:56N 45°47' E 013°33'0 0.0
2017-Jun-19 21:29N 45°47' E 013°33'0 0.0
2017-Jun-19 20:59N 45°47' E 013°33'0 0.0
2017-Jun-19 20:29N 45°47' E 013°33'0 0.0
2017-Jun-19 19:59N 45°47' E 013°33'0 0.0
2017-Jun-19 19:29N 45°47' E 013°33'0 0.0
2017-Jun-19 18:47N 45°47' E 013°33'0 0.0
2017-Jun-19 18:29N 45°47' E 013°33'0 0.0
2017-Jun-19 17:59N 45°47' E 013°33'0 0.0
2017-Jun-19 17:26N 45°47' E 013°33'0 0.0
2017-Jun-19 17:00N 45°47' E 013°33'0 0.0
2017-Jun-19 16:29N 45°47' E 013°33'0 0.0
2017-Jun-19 15:58N 45°47' E 013°33'0 0.0
2017-Jun-19 15:29N 45°47' E 013°33'0 0.0
2017-Jun-19 14:57N 45°47' E 013°33'0 0.0
2017-Jun-19 13:59N 45°47' E 013°33'0 0.0
2017-Jun-19 13:25N 45°47' E 013°33'0 0.0
2017-Jun-19 13:00N 45°47' E 013°33'0 0.0
2017-Jun-19 12:30N 45°47' E 013°33'0 0.0
2017-Jun-19 12:00N 45°47' E 013°33'0 0.0
2017-Jun-19 11:30N 45°47' E 013°33'0 0.0
2017-Jun-19 10:59N 45°47' E 013°33'0 0.0
2017-Jun-19 10:29N 45°47' E 013°33'0 0.0
2017-Jun-19 09:59N 45°47' E 013°33'0 0.0
2017-Jun-19 09:29N 45°47' E 013°33'0 0.0
2017-Jun-19 09:00N 45°47' E 013°33'0 0.0
2017-Jun-19 08:29N 45°47' E 013°33'0 0.0
2017-Jun-19 07:53N 45°47' E 013°33'0 0.0
2017-Jun-19 07:23N 45°47' E 013°33'0 0.0
2017-Jun-19 06:59N 45°47' E 013°33'0 0.0
2017-Jun-19 06:29N 45°47' E 013°33'0 0.0
2017-Jun-19 05:59N 45°47' E 013°33'0 0.0
2017-Jun-19 05:23N 45°47' E 013°33'0 0.0
2017-Jun-19 04:59N 45°47' E 013°33'0 0.0
2017-Jun-19 04:29N 45°47' E 013°33'0 0.0
2017-Jun-19 03:55N 45°47' E 013°33'0 0.0
2017-Jun-19 03:16N 45°47' E 013°33'0 0.0
2017-Jun-19 02:58N 45°47' E 013°33'0 0.0
2017-Jun-19 02:28N 45°47' E 013°33'0 0.0
2017-Jun-19 01:58N 45°47' E 013°33'0 0.0
2017-Jun-19 01:28N 45°47' E 013°33'0 0.0
2017-Jun-19 00:59N 45°47' E 013°33'0 0.0
2017-Jun-19 00:29N 45°47' E 013°33'0 0.0
2017-Jun-18 23:59N 45°47' E 013°33'0 0.0
2017-Jun-18 23:29N 45°47' E 013°33'0 0.0
2017-Jun-18 22:53N 45°47' E 013°33'0 0.0
2017-Jun-18 22:29N 45°47' E 013°33'0 0.0
2017-Jun-18 21:47N 45°47' E 013°33'0 0.0
2017-Jun-18 21:29N 45°47' E 013°33'0 0.0
2017-Jun-18 20:59N 45°47' E 013°33'0 0.0
2017-Jun-18 20:29N 45°47' E 013°33'0 0.0
2017-Jun-18 19:53N 45°47' E 013°33'0 0.0
2017-Jun-18 19:29N 45°47' E 013°33'0 0.0
2017-Jun-18 18:59N 45°47' E 013°33'0 0.0
2017-Jun-18 18:26N 45°47' E 013°33'0 0.0
2017-Jun-18 17:59N 45°47' E 013°33'0 0.0
2017-Jun-18 17:29N 45°47' E 013°33'0 0.0
2017-Jun-18 16:59N 45°47' E 013°33'0 0.0
2017-Jun-18 16:29N 45°47' E 013°33'0 0.0
2017-Jun-18 15:59N 45°47' E 013°33'0 0.0
2017-Jun-18 15:29N 45°47' E 013°33'0 0.0
2017-Jun-18 14:47N 45°47' E 013°33'0 0.0
2017-Jun-18 14:29N 45°47' E 013°33'0 0.0
2017-Jun-18 13:59N 45°47' E 013°33'0 0.0
2017-Jun-18 13:29N 45°47' E 013°33'0 0.0
2017-Jun-18 12:59N 45°47' E 013°33'0 0.0
2017-Jun-18 12:29N 45°47' E 013°33'0 0.0
2017-Jun-18 11:47N 45°47' E 013°33'0 0.0
2017-Jun-18 11:17N 45°47' E 013°33'0 0.0
2017-Jun-18 10:59N 45°47' E 013°33'0 0.0
2017-Jun-18 10:26N 45°47' E 013°33'0 0.0
2017-Jun-18 09:59N 45°47' E 013°33'0 0.0
2017-Jun-18 09:29N 45°47' E 013°33'0 0.0
2017-Jun-18 08:41N 45°47' E 013°33'0 0.0
2017-Jun-18 08:29N 45°47' E 013°33'0 0.0
2017-Jun-18 07:59N 45°47' E 013°33'0 0.0
2017-Jun-18 07:29N 45°47' E 013°33'0 0.0
2017-Jun-18 06:59N 45°47' E 013°33'0 0.0
2017-Jun-18 06:29N 45°47' E 013°33'0 0.0
2017-Jun-18 05:59N 45°47' E 013°33'0 0.0
2017-Jun-18 05:29N 45°47' E 013°33'0 0.0
2017-Jun-18 04:59N 45°47' E 013°33'0 0.0
2017-Jun-18 04:23N 45°47' E 013°33'0 0.0
2017-Jun-18 03:56N 45°47' E 013°33'0 0.0
2017-Jun-18 03:26N 45°47' E 013°33'0 0.0
2017-Jun-18 02:59N 45°47' E 013°33'0 0.0
2017-Jun-18 02:29N 45°47' E 013°33'0 0.0
2017-Jun-18 01:59N 45°47' E 013°33'0 0.0
2017-Jun-18 01:29N 45°47' E 013°33'0 0.0
2017-Jun-18 00:59N 45°47' E 013°33'0 0.0
2017-Jun-18 00:29N 45°47' E 013°33'0 0.0
2017-Jun-17 23:59N 45°47' E 013°33'0 0.0
2017-Jun-17 23:29N 45°47' E 013°33'0 0.0
2017-Jun-17 22:59N 45°47' E 013°33'0 0.0
2017-Jun-17 22:29N 45°47' E 013°33'0 0.0
2017-Jun-17 21:59N 45°47' E 013°33'0 0.0
2017-Jun-17 21:29N 45°47' E 013°33'0 0.0
2017-Jun-17 20:59N 45°47' E 013°33'0 0.0
2017-Jun-17 20:23N 45°47' E 013°33'0 0.0
2017-Jun-17 19:59N 45°47' E 013°33'0 0.0
2017-Jun-17 19:20N 45°47' E 013°33'0 0.0
2017-Jun-17 18:47N 45°47' E 013°33'0 0.0
2017-Jun-17 18:24N 45°47' E 013°33'0 0.0
2017-Jun-17 18:00N 45°47' E 013°33'0 0.0
2017-Jun-17 17:24N 45°47' E 013°33'0 0.0
2017-Jun-17 17:00N 45°47' E 013°33'0 0.0
2017-Jun-17 16:30N 45°47' E 013°33'0 0.0
2017-Jun-17 15:50N 45°47' E 013°33'0 0.0
2017-Jun-17 15:28N 45°47' E 013°33'0 0.0
2017-Jun-17 14:58N 45°47' E 013°33'0 0.0
2017-Jun-17 13:59N 45°47' E 013°33'0 0.0
2017-Jun-17 13:26N 45°47' E 013°33'0 0.0
2017-Jun-17 12:56N 45°47' E 013°33'0 0.0
2017-Jun-17 12:26N 45°47' E 013°33'0 0.0
2017-Jun-17 12:00N 45°47' E 013°33'0 0.0
2017-Jun-17 11:30N 45°47' E 013°33'0 0.0
2017-Jun-17 10:57N 45°47' E 013°33'0 0.0
2017-Jun-17 10:30N 45°47' E 013°33'0 0.0
2017-Jun-17 10:00N 45°47' E 013°33'0 0.0
2017-Jun-17 09:30N 45°47' E 013°33'0 0.0
2017-Jun-17 09:00N 45°47' E 013°33'0 0.0
2017-Jun-17 08:30N 45°47' E 013°33'0 0.0
2017-Jun-17 07:57N 45°47' E 013°33'0 0.0
2017-Jun-17 07:30N 45°47' E 013°33'0 0.0
2017-Jun-17 07:00N 45°47' E 013°33'0 0.0
2017-Jun-17 06:24N 45°47' E 013°33'0 0.0
2017-Jun-17 06:00N 45°47' E 013°33'0 0.0
2017-Jun-17 05:20N 45°47' E 013°33'0 0.0
2017-Jun-17 04:56N 45°47' E 013°33'0 0.0
2017-Jun-17 04:28N 45°47' E 013°33'0 0.0
2017-Jun-17 03:58N 45°47' E 013°33'0 0.0
2017-Jun-17 03:22N 45°47' E 013°33'0 0.0
2017-Jun-17 02:58N 45°47' E 013°33'0 0.0
2017-Jun-17 02:28N 45°47' E 013°33'0 0.0
2017-Jun-17 01:55N 45°47' E 013°33'0 0.0
2017-Jun-17 01:28N 45°47' E 013°33'0 0.0
2017-Jun-17 00:58N 45°47' E 013°33'0 0.0
2017-Jun-17 00:28N 45°47' E 013°33'0 0.0
2017-Jun-16 23:58N 45°47' E 013°33'0 0.0
2017-Jun-16 23:28N 45°47' E 013°33'0 0.0
2017-Jun-16 22:58N 45°47' E 013°33'0 0.0
2017-Jun-16 22:28N 45°47' E 013°33'0 0.0
2017-Jun-16 21:55N 45°47' E 013°33'0 0.0
2017-Jun-16 21:28N 45°47' E 013°33'0 0.0
2017-Jun-16 20:55N 45°47' E 013°33'0 0.0
2017-Jun-16 20:28N 45°47' E 013°33'0 0.0
2017-Jun-16 19:58N 45°47' E 013°33'0 0.0
2017-Jun-16 19:28N 45°47' E 013°33'0 0.0
2017-Jun-16 18:58N 45°47' E 013°33'0 0.0
2017-Jun-16 18:28N 45°47' E 013°33'0 0.0
2017-Jun-16 17:59N 45°47' E 013°33'0 0.0
2017-Jun-16 17:30N 45°47' E 013°33'0 0.0
2017-Jun-16 16:57N 45°47' E 013°33'0 0.0
2017-Jun-16 16:30N 45°47' E 013°33'0 0.0
2017-Jun-16 16:00N 45°47' E 013°33'0 0.0
2017-Jun-16 15:29N 45°47' E 013°33'0 0.0
2017-Jun-16 14:59N 45°47' E 013°33'0 0.0
2017-Jun-16 13:59N 45°47' E 013°33'0 0.0
2017-Jun-16 13:29N 45°47' E 013°33'0 0.0
2017-Jun-16 12:57N 45°47' E 013°33'0 0.0
2017-Jun-16 12:28N 45°47' E 013°33'0 0.0
2017-Jun-16 11:57N 45°47' E 013°33'0 0.0
2017-Jun-16 11:30N 45°47' E 013°33'0 0.0
2017-Jun-16 11:00N 45°47' E 013°33'0 0.0
2017-Jun-16 10:30N 45°47' E 013°33'0 0.0
2017-Jun-16 10:00N 45°47' E 013°33'0 0.0
2017-Jun-16 09:27N 45°47' E 013°33'0 0.0
2017-Jun-16 09:00N 45°47' E 013°33'0 0.0
2017-Jun-16 08:30N 45°47' E 013°33'0 0.0
2017-Jun-16 08:00N 45°47' E 013°33'0 0.0
2017-Jun-16 07:30N 45°47' E 013°33'0 0.0
2017-Jun-16 07:00N 45°47' E 013°33'0 0.0
2017-Jun-16 06:30N 45°47' E 013°33'0 0.0
2017-Jun-16 06:00N 45°47' E 013°33'0 0.0
2017-Jun-16 05:27N 45°47' E 013°33'0 0.0
2017-Jun-16 04:57N 45°47' E 013°33'0 0.0
2017-Jun-16 04:18N 45°47' E 013°33'0 0.0
2017-Jun-16 04:00N 45°47' E 013°33'0 0.0
2017-Jun-16 03:27N 45°47' E 013°33'0 0.0
2017-Jun-16 02:54N 45°47' E 013°33'0 0.0
2017-Jun-16 02:30N 45°47' E 013°33'0 0.0
2017-Jun-16 02:00N 45°47' E 013°33'0 0.0
2017-Jun-16 01:30N 45°47' E 013°33'0 0.0
2017-Jun-16 00:57N 45°47' E 013°33'0 0.0
2017-Jun-16 00:21N 45°47' E 013°33'0 0.0
2017-Jun-16 00:00N 45°47' E 013°33'0 0.0
2017-Jun-15 23:30N 45°47' E 013°33'0 0.0
2017-Jun-15 23:00N 45°47' E 013°33'0 0.0
2017-Jun-15 22:30N 45°47' E 013°33'0 0.0
2017-Jun-15 22:00N 45°47' E 013°33'0 0.0
2017-Jun-15 21:29N 45°47' E 013°33'0 0.0
2017-Jun-15 20:56N 45°47' E 013°33'0 0.0
2017-Jun-15 20:29N 45°47' E 013°33'0 0.0
2017-Jun-15 19:59N 45°47' E 013°33'0 0.0
2017-Jun-15 19:29N 45°47' E 013°33'0 0.0
2017-Jun-15 18:52N 45°47' E 013°33'0 0.0
2017-Jun-15 18:22N 45°47' E 013°33'0 0.0
2017-Jun-15 17:58N 45°47' E 013°33'0 0.0
2017-Jun-15 17:28N 45°47' E 013°33'0 0.0
2017-Jun-15 16:55N 45°47' E 013°33'0 0.0
2017-Jun-15 16:25N 45°47' E 013°33'0 0.0
2017-Jun-15 15:58N 45°47' E 013°33'0 0.0
2017-Jun-15 15:31N 45°47' E 013°33'0 0.0
2017-Jun-15 14:57N 45°47' E 013°33'0 0.0
2017-Jun-15 14:27N 45°47' E 013°33'2 2.5
2017-Jun-15 13:30N 45°45' E 013°35'2 4.1
2017-Jun-15 13:00N 45°44' E 013°38'0 0.8
2017-Jun-15 12:28N 45°44' E 013°38'0 0.0
2017-Jun-15 11:58N 45°44' E 013°38'0 0.0
2017-Jun-15 11:25N 45°44' E 013°38'0 0.0
2017-Jun-15 10:54N 45°44' E 013°38'0 0.1
2017-Jun-15 10:30N 45°44' E 013°38'0 0.1
2017-Jun-15 10:00N 45°44' E 013°38'0 0.0
2017-Jun-15 09:26N 45°44' E 013°38'0 0.1
2017-Jun-15 08:59N 45°44' E 013°38'0 0.0
2017-Jun-15 08:26N 45°44' E 013°38'0 0.0
2017-Jun-15 07:58N 45°44' E 013°38'0 0.0
2017-Jun-15 07:28N 45°44' E 013°38'0 0.0
2017-Jun-15 06:52N 45°44' E 013°38'0 0.0
2017-Jun-15 06:22N 45°44' E 013°38'0 0.0
2017-Jun-15 05:54N 45°44' E 013°38'0 0.0
2017-Jun-15 05:30N 45°44' E 013°38'0 0.0
2017-Jun-15 04:57N 45°44' E 013°38'0 0.0
2017-Jun-15 04:30N 45°44' E 013°38'0 0.0
2017-Jun-15 03:57N 45°44' E 013°38'0 0.0
2017-Jun-15 03:30N 45°44' E 013°38'0 0.0
2017-Jun-15 02:51N 45°44' E 013°38'0 0.0
2017-Jun-15 02:26N 45°44' E 013°38'0 0.1
2017-Jun-15 01:56N 45°44' E 013°38'0 0.0
2017-Jun-15 01:26N 45°44' E 013°38'0 0.0
2017-Jun-15 00:59N 45°44' E 013°38'0 0.0
2017-Jun-15 00:20N 45°44' E 013°38'0 0.0
2017-Jun-14 23:53N 45°44' E 013°38'0 0.0
2017-Jun-14 23:29N 45°44' E 013°38'0 0.0
2017-Jun-14 22:50N 45°44' E 013°38'0 0.1
2017-Jun-14 22:29N 45°44' E 013°38'0 0.0
2017-Jun-14 21:59N 45°44' E 013°38'0 0.1
2017-Jun-14 21:29N 45°44' E 013°38'0 0.0
2017-Jun-14 20:59N 45°44' E 013°38'0 0.0
2017-Jun-14 20:26N 45°44' E 013°38'0 0.0
2017-Jun-14 19:56N 45°44' E 013°38'0 0.0
2017-Jun-14 19:26N 45°44' E 013°38'0 0.0
2017-Jun-14 18:59N 45°44' E 013°38'0 0.1
2017-Jun-14 18:29N 45°44' E 013°38'0 0.0
2017-Jun-14 17:59N 45°44' E 013°38'0 0.0
2017-Jun-14 17:29N 45°44' E 013°38'0 0.0
2017-Jun-14 16:59N 45°44' E 013°38'0 0.1
2017-Jun-14 16:29N 45°44' E 013°38'0 0.0
2017-Jun-14 15:59N 45°44' E 013°38'0 0.0
2017-Jun-14 15:29N 45°44' E 013°38'0 0.0
2017-Jun-14 14:56N 45°44' E 013°38'0 0.0
2017-Jun-14 13:56N 45°44' E 013°38'0 0.0
2017-Jun-14 13:26N 45°44' E 013°38'0 0.1
2017-Jun-14 12:59N 45°44' E 013°38'0 0.1
2017-Jun-14 12:29N 45°44' E 013°38'0 0.0
2017-Jun-14 11:59N 45°44' E 013°38'0 0.0
2017-Jun-14 11:29N 45°44' E 013°38'0 0.1
2017-Jun-14 10:56N 45°44' E 013°38'0 0.0
2017-Jun-14 10:23N 45°44' E 013°38'0 0.1
2017-Jun-14 09:53N 45°44' E 013°38'0 0.0
2017-Jun-14 09:26N 45°44' E 013°38'0 0.0
2017-Jun-14 08:59N 45°44' E 013°38'0 0.0
2017-Jun-14 08:23N 45°44' E 013°38'0 0.0
2017-Jun-14 07:59N 45°44' E 013°38'0 0.0
2017-Jun-14 07:29N 45°44' E 013°38'0 0.0
2017-Jun-14 06:53N 45°44' E 013°38'0 0.0
2017-Jun-14 06:29N 45°44' E 013°38'0 0.0
2017-Jun-14 05:54N 45°44' E 013°38'0 0.0
2017-Jun-14 05:29N 45°44' E 013°38'0 0.0
2017-Jun-14 04:58N 45°44' E 013°38'0 0.0
2017-Jun-14 04:26N 45°44' E 013°38'0 0.0
2017-Jun-14 03:58N 45°44' E 013°38'0 0.0
2017-Jun-14 03:27N 45°44' E 013°38'0 0.0
2017-Jun-14 03:00N 45°44' E 013°38'0 0.0
2017-Jun-14 02:30N 45°44' E 013°38'0 0.0
2017-Jun-14 02:00N 45°44' E 013°38'0 0.0
2017-Jun-14 01:24N 45°44' E 013°38'0 0.0
2017-Jun-14 01:00N 45°44' E 013°38'0 0.0
2017-Jun-14 00:30N 45°44' E 013°38'0 0.0
2017-Jun-13 23:59N 45°44' E 013°38'0 0.0
2017-Jun-13 23:20N 45°44' E 013°38'0 0.0
2017-Jun-13 22:56N 45°44' E 013°38'0 0.0
2017-Jun-13 22:29N 45°44' E 013°38'0 0.0
2017-Jun-13 21:58N 45°44' E 013°38'0 0.0
2017-Jun-13 21:28N 45°44' E 013°38'0 0.0
2017-Jun-13 20:56N 45°44' E 013°38'0 0.0
2017-Jun-13 20:30N 45°44' E 013°38'0 0.0
2017-Jun-13 19:59N 45°44' E 013°38'0 0.0
2017-Jun-13 19:25N 45°44' E 013°38'0 0.0
2017-Jun-13 18:54N 45°44' E 013°38'0 0.1
2017-Jun-13 18:29N 45°44' E 013°38'0 0.1
2017-Jun-13 17:56N 45°44' E 013°38'0 0.0
2017-Jun-13 17:14N 45°44' E 013°38'0 0.0
2017-Jun-13 16:59N 45°44' E 013°38'0 0.0
2017-Jun-13 16:30N 45°44' E 013°38'0 0.0
2017-Jun-13 16:00N 45°44' E 013°38'0 0.0
2017-Jun-13 15:23N 45°44' E 013°38'0 0.0
2017-Jun-13 14:59N 45°44' E 013°38'  
Track history (hours):
 
Tides and Currents Weather Stations Pressure Air Temp Water Temp Dewpoint Dewpoint Depression Visibility Wind Speed Wind Dir Waves Ship Positions

Zealand Delilah

Last reported at 2017-Jun-23 14:36 UTC. Time now 2017-Jun-23 15:30 UTC.
Position N 41°45' E 016°49'.

Length 134 m; draft 5.6 m.

Type: Ship. MMSI: 245935000.

Date/timePositionNaut miles runAvg speedWind from/ knotsBaromVisibWave heightAir tempDewpointWater temp
2017-Jun-23 14:36N 41°45' E 016°49'712.1
2017-Jun-23 14:00N 41°50' E 016°42'813.3
2017-Jun-23 13:23N 41°55' E 016°33'513.3
2017-Jun-23 13:00N 41°59' E 016°28'713.1
2017-Jun-23 12:30N 42°03' E 016°22'612.9
2017-Jun-23 12:00N 42°08' E 016°16'712.8
2017-Jun-23 11:29N 42°13' E 016°10'613.0
2017-Jun-23 11:00N 42°18' E 016°04'713.1
2017-Jun-23 10:30N 42°23' E 015°58'712.9
2017-Jun-23 09:59N 42°27' E 015°52'713.1
2017-Jun-23 09:28N 42°32' E 015°46'613.3
2017-Jun-23 08:59N 42°37' E 015°40'613.3
2017-Jun-23 08:30N 42°42' E 015°35'713.3
2017-Jun-23 08:00N 42°47' E 015°29'1013.2
2017-Jun-23 07:15N 42°55' E 015°21'513.3
2017-Jun-23 06:51N 42°59' E 015°16'413.1
2017-Jun-23 06:30N 43°03' E 015°12'812.9
2017-Jun-23 05:52N 43°09' E 015°05'513.1
2017-Jun-23 05:29N 43°13' E 015°01'713.1
2017-Jun-23 04:57N 43°18' E 014°55'613.1
2017-Jun-23 04:30N 43°23' E 014°50'713.0
2017-Jun-23 03:59N 43°28' E 014°44'612.9
2017-Jun-23 03:30N 43°33' E 014°38'612.8
2017-Jun-23 03:00N 43°38' E 014°33'612.8
2017-Jun-23 02:30N 43°43' E 014°27'712.7
2017-Jun-23 01:59N 43°48' E 014°22'612.8
2017-Jun-23 01:29N 43°53' E 014°16'712.8
2017-Jun-23 00:58N 43°58' E 014°10'612.9
2017-Jun-23 00:30N 44°03' E 014°05'713.1
2017-Jun-22 23:59N 44°08' E 013°60'813.3
2017-Jun-22 23:21N 44°15' E 013°53'1613.4
2017-Jun-22 22:12N 44°28' E 013°41'313.5
2017-Jun-22 22:00N 44°31' E 013°39'813.6
2017-Jun-22 21:25N 44°37' E 013°33'613.3
2017-Jun-22 21:00N 44°42' E 013°29'713.4
2017-Jun-22 20:31N 44°47' E 013°24'713.1
2017-Jun-22 20:01N 44°53' E 013°19'713.0
2017-Jun-22 19:30N 44°58' E 013°14'713.1
2017-Jun-22 19:00N 45°04' E 013°09'612.9
2017-Jun-22 18:31N 45°09' E 013°04'713.1
2017-Jun-22 18:01N 45°16' E 013°02'612.1
2017-Jun-22 17:30N 45°22' E 013°02'613.0
2017-Jun-22 17:00N 45°27' E 013°08'612.9
2017-Jun-22 16:30N 45°31' E 013°14'612.5
2017-Jun-22 16:00N 45°35' E 013°22'612.9
2017-Jun-22 15:30N 45°37' E 013°30'611.8
2017-Jun-22 15:00N 45°41' E 013°37'510.5
2017-Jun-22 14:30N 45°46' E 013°34'1 1.3
2017-Jun-22 13:26N 45°47' E 013°33'0 0.0
2017-Jun-22 12:56N 45°47' E 013°33'0 0.0
2017-Jun-22 12:29N 45°47' E 013°33'0 0.0
2017-Jun-22 11:56N 45°47' E 013°33'0 0.0
2017-Jun-22 11:29N 45°47' E 013°33'0 0.0
2017-Jun-22 10:59N 45°47' E 013°33'0 0.0
2017-Jun-22 10:26N 45°47' E 013°33'0 0.0
2017-Jun-22 09:59N 45°47' E 013°33'0 0.0
2017-Jun-22 09:29N 45°47' E 013°33'0 0.0
2017-Jun-22 08:56N 45°47' E 013°33'0 0.0
2017-Jun-22 08:29N 45°47' E 013°33'0 0.0
2017-Jun-22 07:59N 45°47' E 013°33'0 0.0
2017-Jun-21 23:35N 45°47' E 013°33'0 0.0
2017-Jun-21 23:29N 45°47' E 013°33'0 0.0
2017-Jun-21 22:56N 45°47' E 013°33'0 0.0
2017-Jun-21 22:26N 45°47' E 013°33'0 0.0
2017-Jun-21 21:59N 45°47' E 013°33'0 0.0
2017-Jun-21 21:29N 45°47' E 013°33'0 0.0
2017-Jun-21 20:53N 45°47' E 013°33'0 0.0
2017-Jun-21 20:29N 45°47' E 013°33'0 0.0
2017-Jun-21 19:56N 45°47' E 013°33'0 0.0
2017-Jun-21 19:29N 45°47' E 013°33'0 0.0
2017-Jun-21 18:59N 45°47' E 013°33'0 0.0
2017-Jun-21 18:29N 45°47' E 013°33'0 0.0
2017-Jun-21 17:56N 45°47' E 013°33'0 0.0
2017-Jun-21 17:29N 45°47' E 013°33'0 0.0
2017-Jun-21 16:59N 45°47' E 013°33'0 0.0
2017-Jun-21 16:29N 45°47' E 013°33'0 0.0
2017-Jun-21 15:59N 45°47' E 013°33'0 0.0
2017-Jun-21 15:26N 45°47' E 013°33'0 0.0
2017-Jun-21 14:53N 45°47' E 013°33'0 0.0
2017-Jun-21 13:59N 45°47' E 013°33'0 0.0
2017-Jun-21 13:29N 45°47' E 013°33'0 0.0
2017-Jun-21 12:53N 45°47' E 013°33'0 0.0
2017-Jun-21 12:26N 45°47' E 013°33'0 0.0
2017-Jun-21 11:50N 45°47' E 013°33'0 0.0
2017-Jun-21 11:29N 45°47' E 013°33'0 0.0
2017-Jun-21 10:59N 45°47' E 013°33'0 0.0
2017-Jun-21 10:29N 45°47' E 013°33'0 0.0
2017-Jun-21 09:56N 45°47' E 013°33'0 0.0
2017-Jun-21 09:29N 45°47' E 013°33'0 0.0
2017-Jun-21 08:59N 45°47' E 013°33'0 0.0
2017-Jun-21 08:29N 45°47' E 013°33'0 0.0
2017-Jun-21 07:56N 45°47' E 013°33'0 0.0
2017-Jun-21 07:29N 45°47' E 013°33'0 0.0
2017-Jun-21 06:53N 45°47' E 013°33'0 0.0
2017-Jun-21 06:29N 45°47' E 013°33'0 0.0
2017-Jun-21 05:59N 45°47' E 013°33'0 0.0
2017-Jun-21 05:26N 45°47' E 013°33'0 0.0
2017-Jun-21 04:59N 45°47' E 013°33'0 0.0
2017-Jun-21 04:29N 45°47' E 013°33'0 0.0
2017-Jun-21 03:59N 45°47' E 013°33'0 0.0
2017-Jun-21 03:26N 45°47' E 013°33'0 0.0
2017-Jun-21 02:50N 45°47' E 013°33'0 0.0
2017-Jun-21 02:29N 45°47' E 013°33'0 0.0
2017-Jun-21 01:59N 45°47' E 013°33'0 0.0
2017-Jun-21 01:29N 45°47' E 013°33'0 0.0
2017-Jun-21 00:53N 45°47' E 013°33'0 0.0
2017-Jun-21 00:29N 45°47' E 013°33'0 0.0
2017-Jun-20 23:59N 45°47' E 013°33'0 0.0
2017-Jun-20 23:29N 45°47' E 013°33'0 0.0
2017-Jun-20 22:56N 45°47' E 013°33'0 0.0
2017-Jun-20 22:29N 45°47' E 013°33'0 0.0
2017-Jun-20 21:59N 45°47' E 013°33'0 0.0
2017-Jun-20 21:29N 45°47' E 013°33'0 0.0
2017-Jun-20 20:56N 45°47' E 013°33'0 0.0
2017-Jun-20 20:26N 45°47' E 013°33'0 0.0
2017-Jun-20 19:59N 45°47' E 013°33'0 0.0
2017-Jun-20 19:23N 45°47' E 013°33'0 0.0
2017-Jun-20 18:56N 45°47' E 013°33'0 0.0
2017-Jun-20 18:29N 45°47' E 013°33'0 0.0
2017-Jun-20 17:59N 45°47' E 013°33'0 0.0
2017-Jun-20 17:26N 45°47' E 013°33'0 0.0
2017-Jun-20 16:56N 45°47' E 013°33'0 0.0
2017-Jun-20 16:23N 45°47' E 013°33'0 0.0
2017-Jun-20 15:56N 45°47' E 013°33'0 0.0
2017-Jun-20 15:26N 45°47' E 013°33'0 0.0
2017-Jun-20 14:56N 45°47' E 013°33'0 0.0
2017-Jun-20 13:56N 45°47' E 013°33'0 0.0
2017-Jun-20 13:29N 45°47' E 013°33'0 0.0
2017-Jun-20 12:59N 45°47' E 013°33'0 0.0
2017-Jun-20 12:29N 45°47' E 013°33'0 0.0
2017-Jun-20 11:56N 45°47' E 013°33'0 0.0
2017-Jun-20 11:29N 45°47' E 013°33'0 0.0
2017-Jun-20 10:59N 45°47' E 013°33'0 0.0
2017-Jun-20 10:29N 45°47' E 013°33'0 0.0
2017-Jun-20 09:59N 45°47' E 013°33'0 0.0
2017-Jun-20 09:23N 45°47' E 013°33'0 0.0
2017-Jun-20 08:56N 45°47' E 013°33'0 0.0
2017-Jun-20 08:26N 45°47' E 013°33'0 0.0
2017-Jun-20 07:59N 45°47' E 013°33'0 0.0
2017-Jun-20 07:29N 45°47' E 013°33'0 0.0
2017-Jun-20 06:56N 45°47' E 013°33'0 0.0
2017-Jun-20 06:29N 45°47' E 013°33'0 0.0
2017-Jun-20 05:59N 45°47' E 013°33'0 0.0
2017-Jun-20 05:26N 45°47' E 013°33'0 0.0
2017-Jun-20 04:56N 45°47' E 013°33'0 0.0
2017-Jun-20 04:26N 45°47' E 013°33'0 0.0
2017-Jun-20 03:50N 45°47' E 013°33'0 0.0
2017-Jun-20 03:23N 45°47' E 013°33'0 0.0
2017-Jun-20 02:44N 45°47' E 013°33'0 0.0
2017-Jun-20 02:28N 45°47' E 013°33'0 0.0
2017-Jun-20 01:58N 45°47' E 013°33'0 0.0
2017-Jun-20 01:30N 45°47' E 013°33'0 0.0
2017-Jun-20 00:56N 45°47' E 013°33'0 0.0
2017-Jun-20 00:26N 45°47' E 013°33'0 0.0
2017-Jun-19 23:59N 45°47' E 013°33'0 0.0
2017-Jun-19 23:29N 45°47' E 013°33'0 0.0
2017-Jun-19 22:56N 45°47' E 013°33'0 0.0
2017-Jun-19 22:29N 45°47' E 013°33'0 0.0
2017-Jun-19 21:56N 45°47' E 013°33'0 0.0
2017-Jun-19 21:29N 45°47' E 013°33'0 0.0
2017-Jun-19 20:59N 45°47' E 013°33'0 0.0
2017-Jun-19 20:29N 45°47' E 013°33'0 0.0
2017-Jun-19 19:59N 45°47' E 013°33'0 0.0
2017-Jun-19 19:29N 45°47' E 013°33'0 0.0
2017-Jun-19 18:47N 45°47' E 013°33'0 0.0
2017-Jun-19 18:29N 45°47' E 013°33'0 0.0
2017-Jun-19 17:59N 45°47' E 013°33'0 0.0
2017-Jun-19 17:26N 45°47' E 013°33'0 0.0
2017-Jun-19 17:00N 45°47' E 013°33'0 0.0
2017-Jun-19 16:29N 45°47' E 013°33'0 0.0
2017-Jun-19 15:58N 45°47' E 013°33'0 0.0
2017-Jun-19 15:29N 45°47' E 013°33'0 0.0
2017-Jun-19 14:57N 45°47' E 013°33'0 0.0
2017-Jun-19 13:59N 45°47' E 013°33'0 0.0
2017-Jun-19 13:25N 45°47' E 013°33'0 0.0
2017-Jun-19 13:00N 45°47' E 013°33'0 0.0
2017-Jun-19 12:30N 45°47' E 013°33'0 0.0
2017-Jun-19 12:00N 45°47' E 013°33'0 0.0
2017-Jun-19 11:30N 45°47' E 013°33'0 0.0
2017-Jun-19 10:59N 45°47' E 013°33'0 0.0
2017-Jun-19 10:29N 45°47' E 013°33'0 0.0
2017-Jun-19 09:59N 45°47' E 013°33'0 0.0
2017-Jun-19 09:29N 45°47' E 013°33'0 0.0
2017-Jun-19 09:00N 45°47' E 013°33'0 0.0
2017-Jun-19 08:29N 45°47' E 013°33'0 0.0
2017-Jun-19 07:53N 45°47' E 013°33'0 0.0
2017-Jun-19 07:23N 45°47' E 013°33'0 0.0
2017-Jun-19 06:59N 45°47' E 013°33'0 0.0
2017-Jun-19 06:29N 45°47' E 013°33'0 0.0
2017-Jun-19 05:59N 45°47' E 013°33'0 0.0
2017-Jun-19 05:23N 45°47' E 013°33'0 0.0
2017-Jun-19 04:59N 45°47' E 013°33'0 0.0
2017-Jun-19 04:29N 45°47' E 013°33'0 0.0
2017-Jun-19 03:55N 45°47' E 013°33'0 0.0
2017-Jun-19 03:16N 45°47' E 013°33'0 0.0
2017-Jun-19 02:58N 45°47' E 013°33'0 0.0
2017-Jun-19 02:28N 45°47' E 013°33'0 0.0
2017-Jun-19 01:58N 45°47' E 013°33'0 0.0
2017-Jun-19 01:28N 45°47' E 013°33'0 0.0
2017-Jun-19 00:59N 45°47' E 013°33'0 0.0
2017-Jun-19 00:29N 45°47' E 013°33'0 0.0
2017-Jun-18 23:59N 45°47' E 013°33'0 0.0
2017-Jun-18 23:29N 45°47' E 013°33'0 0.0
2017-Jun-18 22:53N 45°47' E 013°33'0 0.0
2017-Jun-18 22:29N 45°47' E 013°33'0 0.0
2017-Jun-18 21:47N 45°47' E 013°33'0 0.0
2017-Jun-18 21:29N 45°47' E 013°33'0 0.0
2017-Jun-18 20:59N 45°47' E 013°33'0 0.0
2017-Jun-18 20:29N 45°47' E 013°33'0 0.0
2017-Jun-18 19:53N 45°47' E 013°33'0 0.0
2017-Jun-18 19:29N 45°47' E 013°33'0 0.0
2017-Jun-18 18:59N 45°47' E 013°33'0 0.0
2017-Jun-18 18:26N 45°47' E 013°33'0 0.0
2017-Jun-18 17:59N 45°47' E 013°33'0 0.0
2017-Jun-18 17:29N 45°47' E 013°33'0 0.0
2017-Jun-18 16:59N 45°47' E 013°33'0 0.0
2017-Jun-18 16:29N 45°47' E 013°33'0 0.0
2017-Jun-18 15:59N 45°47' E 013°33'0 0.0
2017-Jun-18 15:29N 45°47' E 013°33'0 0.0
2017-Jun-18 14:47N 45°47' E 013°33'0 0.0
2017-Jun-18 14:29N 45°47' E 013°33'0 0.0
2017-Jun-18 13:59N 45°47' E 013°33'0 0.0
2017-Jun-18 13:29N 45°47' E 013°33'0 0.0
2017-Jun-18 12:59N 45°47' E 013°33'0 0.0
2017-Jun-18 12:29N 45°47' E 013°33'0 0.0
2017-Jun-18 11:47N 45°47' E 013°33'0 0.0
2017-Jun-18 11:17N 45°47' E 013°33'0 0.0
2017-Jun-18 10:59N 45°47' E 013°33'0 0.0
2017-Jun-18 10:26N 45°47' E 013°33'0 0.0
2017-Jun-18 09:59N 45°47' E 013°33'0 0.0
2017-Jun-18 09:29N 45°47' E 013°33'0 0.0
2017-Jun-18 08:41N 45°47' E 013°33'0 0.0
2017-Jun-18 08:29N 45°47' E 013°33'0 0.0
2017-Jun-18 07:59N 45°47' E 013°33'0 0.0
2017-Jun-18 07:29N 45°47' E 013°33'0 0.0
2017-Jun-18 06:59N 45°47' E 013°33'0 0.0
2017-Jun-18 06:29N 45°47' E 013°33'0 0.0
2017-Jun-18 05:59N 45°47' E 013°33'0 0.0
2017-Jun-18 05:29N 45°47' E 013°33'0 0.0
2017-Jun-18 04:59N 45°47' E 013°33'0 0.0
2017-Jun-18 04:23N 45°47' E 013°33'0 0.0
2017-Jun-18 03:56N 45°47' E 013°33'0 0.0
2017-Jun-18 03:26N 45°47' E 013°33'0 0.0
2017-Jun-18 02:59N 45°47' E 013°33'0 0.0
2017-Jun-18 02:29N 45°47' E 013°33'0 0.0
2017-Jun-18 01:59N 45°47' E 013°33'0 0.0
2017-Jun-18 01:29N 45°47' E 013°33'0 0.0
2017-Jun-18 00:59N 45°47' E 013°33'0 0.0
2017-Jun-18 00:29N 45°47' E 013°33'0 0.0
2017-Jun-17 23:59N 45°47' E 013°33'0 0.0
2017-Jun-17 23:29N 45°47' E 013°33'0 0.0
2017-Jun-17 22:59N 45°47' E 013°33'0 0.0
2017-Jun-17 22:29N 45°47' E 013°33'0 0.0
2017-Jun-17 21:59N 45°47' E 013°33'0 0.0
2017-Jun-17 21:29N 45°47' E 013°33'0 0.0
2017-Jun-17 20:59N 45°47' E 013°33'0 0.0
2017-Jun-17 20:23N 45°47' E 013°33'0 0.0
2017-Jun-17 19:59N 45°47' E 013°33'0 0.0
2017-Jun-17 19:20N 45°47' E 013°33'0 0.0
2017-Jun-17 18:47N 45°47' E 013°33'0 0.0
2017-Jun-17 18:24N 45°47' E 013°33'0 0.0
2017-Jun-17 18:00N 45°47' E 013°33'0 0.0
2017-Jun-17 17:24N 45°47' E 013°33'0 0.0
2017-Jun-17 17:00N 45°47' E 013°33'0 0.0
2017-Jun-17 16:30N 45°47' E 013°33'0 0.0
2017-Jun-17 15:50N 45°47' E 013°33'0 0.0
2017-Jun-17 15:28N 45°47' E 013°33'0 0.0
2017-Jun-17 14:58N 45°47' E 013°33'0 0.0
2017-Jun-17 13:59N 45°47' E 013°33'0 0.0
2017-Jun-17 13:26N 45°47' E 013°33'0 0.0
2017-Jun-17 12:56N 45°47' E 013°33'0 0.0
2017-Jun-17 12:26N 45°47' E 013°33'0 0.0
2017-Jun-17 12:00N 45°47' E 013°33'0 0.0
2017-Jun-17 11:30N 45°47' E 013°33'0 0.0
2017-Jun-17 10:57N 45°47' E 013°33'0 0.0
2017-Jun-17 10:30N 45°47' E 013°33'0 0.0
2017-Jun-17 10:00N 45°47' E 013°33'0 0.0
2017-Jun-17 09:30N 45°47' E 013°33'0 0.0
2017-Jun-17 09:00N 45°47' E 013°33'0 0.0
2017-Jun-17 08:30N 45°47' E 013°33'0 0.0
2017-Jun-17 07:57N 45°47' E 013°33'0 0.0
2017-Jun-17 07:30N 45°47' E 013°33'0 0.0
2017-Jun-17 07:00N 45°47' E 013°33'0 0.0
2017-Jun-17 06:24N 45°47' E 013°33'0 0.0
2017-Jun-17 06:00N 45°47' E 013°33'0 0.0
2017-Jun-17 05:20N 45°47' E 013°33'0 0.0
2017-Jun-17 04:56N 45°47' E 013°33'0 0.0
2017-Jun-17 04:28N 45°47' E 013°33'0 0.0
2017-Jun-17 03:58N 45°47' E 013°33'0 0.0
2017-Jun-17 03:22N 45°47' E 013°33'0 0.0
2017-Jun-17 02:58N 45°47' E 013°33'0 0.0
2017-Jun-17 02:28N 45°47' E 013°33'0 0.0
2017-Jun-17 01:55N 45°47' E 013°33'0 0.0
2017-Jun-17 01:28N 45°47' E 013°33'0 0.0
2017-Jun-17 00:58N 45°47' E 013°33'0 0.0
2017-Jun-17 00:28N 45°47' E 013°33'0 0.0
2017-Jun-16 23:58N 45°47' E 013°33'0 0.0
2017-Jun-16 23:28N 45°47' E 013°33'0 0.0
2017-Jun-16 22:58N 45°47' E 013°33'0 0.0
2017-Jun-16 22:28N 45°47' E 013°33'0 0.0
2017-Jun-16 21:55N 45°47' E 013°33'0 0.0
2017-Jun-16 21:28N 45°47' E 013°33'0 0.0
2017-Jun-16 20:55N 45°47' E 013°33'0 0.0
2017-Jun-16 20:28N 45°47' E 013°33'0 0.0
2017-Jun-16 19:58N 45°47' E 013°33'0 0.0
2017-Jun-16 19:28N 45°47' E 013°33'0 0.0
2017-Jun-16 18:58N 45°47' E 013°33'0 0.0
2017-Jun-16 18:28N 45°47' E 013°33'0 0.0
2017-Jun-16 17:59N 45°47' E 013°33'0 0.0
2017-Jun-16 17:30N 45°47' E 013°33'0 0.0
2017-Jun-16 16:57N 45°47' E 013°33'0 0.0
2017-Jun-16 16:30N 45°47' E 013°33'0 0.0
2017-Jun-16 16:00N 45°47' E 013°33'0 0.0
2017-Jun-16 15:29N 45°47' E 013°33'0 0.0
2017-Jun-16 14:59N 45°47' E 013°33'0 0.0
2017-Jun-16 13:59N 45°47' E 013°33'0 0.0
2017-Jun-16 13:29N 45°47' E 013°33'0 0.0
2017-Jun-16 12:57N 45°47' E 013°33'0 0.0
2017-Jun-16 12:28N 45°47' E 013°33'0 0.0
2017-Jun-16 11:57N 45°47' E 013°33'0 0.0
2017-Jun-16 11:30N 45°47' E 013°33'0 0.0
2017-Jun-16 11:00N 45°47' E 013°33'0 0.0
2017-Jun-16 10:30N 45°47' E 013°33'0 0.0
2017-Jun-16 10:00N 45°47' E 013°33'0 0.0
2017-Jun-16 09:27N 45°47' E 013°33'0 0.0
2017-Jun-16 09:00N 45°47' E 013°33'0 0.0
2017-Jun-16 08:30N 45°47' E 013°33'0 0.0
2017-Jun-16 08:00N 45°47' E 013°33'0 0.0
2017-Jun-16 07:30N 45°47' E 013°33'0 0.0
2017-Jun-16 07:00N 45°47' E 013°33'0 0.0
2017-Jun-16 06:30N 45°47' E 013°33'0 0.0
2017-Jun-16 06:00N 45°47' E 013°33'0 0.0
2017-Jun-16 05:27N 45°47' E 013°33'0 0.0
2017-Jun-16 04:57N 45°47' E 013°33'0 0.0
2017-Jun-16 04:18N 45°47' E 013°33'0 0.0
2017-Jun-16 04:00N 45°47' E 013°33'0 0.0
2017-Jun-16 03:27N 45°47' E 013°33'0 0.0
2017-Jun-16 02:54N 45°47' E 013°33'0 0.0
2017-Jun-16 02:30N 45°47' E 013°33'0 0.0
2017-Jun-16 02:00N 45°47' E 013°33'0 0.0
2017-Jun-16 01:30N 45°47' E 013°33'0 0.0
2017-Jun-16 00:57N 45°47' E 013°33'0 0.0
2017-Jun-16 00:21N 45°47' E 013°33'0 0.0
2017-Jun-16 00:00N 45°47' E 013°33'0 0.0
2017-Jun-15 23:30N 45°47' E 013°33'0 0.0
2017-Jun-15 23:00N 45°47' E 013°33'0 0.0
2017-Jun-15 22:30N 45°47' E 013°33'0 0.0
2017-Jun-15 22:00N 45°47' E 013°33'0 0.0
2017-Jun-15 21:29N 45°47' E 013°33'0 0.0
2017-Jun-15 20:56N 45°47' E 013°33'0 0.0
2017-Jun-15 20:29N 45°47' E 013°33'0 0.0
2017-Jun-15 19:59N 45°47' E 013°33'0 0.0
2017-Jun-15 19:29N 45°47' E 013°33'0 0.0
2017-Jun-15 18:52N 45°47' E 013°33'0 0.0
2017-Jun-15 18:22N 45°47' E 013°33'0 0.0
2017-Jun-15 17:58N 45°47' E 013°33'0 0.0
2017-Jun-15 17:28N 45°47' E 013°33'0 0.0
2017-Jun-15 16:55N 45°47' E 013°33'0 0.0
2017-Jun-15 16:25N 45°47' E 013°33'0 0.0
2017-Jun-15 15:58N 45°47' E 013°33'0 0.0
2017-Jun-15 15:31N 45°47' E 013°33'0 0.0
2017-Jun-15 14:57N 45°47' E 013°33'0 0.0
2017-Jun-15 14:27N 45°47' E 013°33'2 2.5
2017-Jun-15 13:30N 45°45' E 013°35'2 4.1
2017-Jun-15 13:00N 45°44' E 013°38'0 0.8
2017-Jun-15 12:28N 45°44' E 013°38'0 0.0
2017-Jun-15 11:58N 45°44' E 013°38'0 0.0
2017-Jun-15 11:25N 45°44' E 013°38'0 0.0
2017-Jun-15 10:54N 45°44' E 013°38'0 0.1
2017-Jun-15 10:30N 45°44' E 013°38'0 0.1
2017-Jun-15 10:00N 45°44' E 013°38'0 0.0
2017-Jun-15 09:26N 45°44' E 013°38'0 0.1
2017-Jun-15 08:59N 45°44' E 013°38'0 0.0
2017-Jun-15 08:26N 45°44' E 013°38'0 0.0
2017-Jun-15 07:58N 45°44' E 013°38'0 0.0
2017-Jun-15 07:28N 45°44' E 013°38'0 0.0
2017-Jun-15 06:52N 45°44' E 013°38'0 0.0
2017-Jun-15 06:22N 45°44' E 013°38'0 0.0
2017-Jun-15 05:54N 45°44' E 013°38'0 0.0
2017-Jun-15 05:30N 45°44' E 013°38'0 0.0
2017-Jun-15 04:57N 45°44' E 013°38'0 0.0
2017-Jun-15 04:30N 45°44' E 013°38'0 0.0
2017-Jun-15 03:57N 45°44' E 013°38'0 0.0
2017-Jun-15 03:30N 45°44' E 013°38'0 0.0
2017-Jun-15 02:51N 45°44' E 013°38'0 0.0
2017-Jun-15 02:26N 45°44' E 013°38'0 0.1
2017-Jun-15 01:56N 45°44' E 013°38'0 0.0
2017-Jun-15 01:26N 45°44' E 013°38'0 0.0
2017-Jun-15 00:59N 45°44' E 013°38'0 0.0
2017-Jun-15 00:20N 45°44' E 013°38'0 0.0
2017-Jun-14 23:53N 45°44' E 013°38'0 0.0
2017-Jun-14 23:29N 45°44' E 013°38'0 0.0
2017-Jun-14 22:50N 45°44' E 013°38'0 0.1
2017-Jun-14 22:29N 45°44' E 013°38'0 0.0
2017-Jun-14 21:59N 45°44' E 013°38'0 0.1
2017-Jun-14 21:29N 45°44' E 013°38'0 0.0
2017-Jun-14 20:59N 45°44' E 013°38'0 0.0
2017-Jun-14 20:26N 45°44' E 013°38'0 0.0
2017-Jun-14 19:56N 45°44' E 013°38'0 0.0
2017-Jun-14 19:26N 45°44' E 013°38'0 0.0
2017-Jun-14 18:59N 45°44' E 013°38'0 0.1
2017-Jun-14 18:29N 45°44' E 013°38'0 0.0
2017-Jun-14 17:59N 45°44' E 013°38'0 0.0
2017-Jun-14 17:29N 45°44' E 013°38'0 0.0
2017-Jun-14 16:59N 45°44' E 013°38'0 0.1
2017-Jun-14 16:29N 45°44' E 013°38'0 0.0
2017-Jun-14 15:59N 45°44' E 013°38'0 0.0
2017-Jun-14 15:29N 45°44' E 013°38'0 0.0
2017-Jun-14 14:56N 45°44' E 013°38'0 0.0
2017-Jun-14 13:56N 45°44' E 013°38'0 0.0
2017-Jun-14 13:26N 45°44' E 013°38'0 0.1
2017-Jun-14 12:59N 45°44' E 013°38'0 0.1
2017-Jun-14 12:29N 45°44' E 013°38'0 0.0
2017-Jun-14 11:59N 45°44' E 013°38'0 0.0
2017-Jun-14 11:29N 45°44' E 013°38'0 0.1
2017-Jun-14 10:56N 45°44' E 013°38'0 0.0
2017-Jun-14 10:23N 45°44' E 013°38'0 0.1
2017-Jun-14 09:53N 45°44' E 013°38'0 0.0
2017-Jun-14 09:26N 45°44' E 013°38'0 0.0
2017-Jun-14 08:59N 45°44' E 013°38'0 0.0
2017-Jun-14 08:23N 45°44' E 013°38'0 0.0
2017-Jun-14 07:59N 45°44' E 013°38'0 0.0
2017-Jun-14 07:29N 45°44' E 013°38'0 0.0
2017-Jun-14 06:53N 45°44' E 013°38'0 0.0
2017-Jun-14 06:29N 45°44' E 013°38'0 0.0
2017-Jun-14 05:54N 45°44' E 013°38'0 0.0
2017-Jun-14 05:29N 45°44' E 013°38'0 0.0
2017-Jun-14 04:58N 45°44' E 013°38'0 0.0
2017-Jun-14 04:26N 45°44' E 013°38'0 0.0
2017-Jun-14 03:58N 45°44' E 013°38'0 0.0
2017-Jun-14 03:27N 45°44' E 013°38'0 0.0
2017-Jun-14 03:00N 45°44' E 013°38'0 0.0
2017-Jun-14 02:30N 45°44' E 013°38'0 0.0
2017-Jun-14 02:00N 45°44' E 013°38'0 0.0
2017-Jun-14 01:24N 45°44' E 013°38'0 0.0
2017-Jun-14 01:00N 45°44' E 013°38'0 0.0
2017-Jun-14 00:30N 45°44' E 013°38'0 0.0
2017-Jun-13 23:59N 45°44' E 013°38'0 0.0
2017-Jun-13 23:20N 45°44' E 013°38'0 0.0
2017-Jun-13 22:56N 45°44' E 013°38'0 0.0
2017-Jun-13 22:29N 45°44' E 013°38'0 0.0
2017-Jun-13 21:58N 45°44' E 013°38'0 0.0
2017-Jun-13 21:28N 45°44' E 013°38'0 0.0
2017-Jun-13 20:56N 45°44' E 013°38'0 0.0
2017-Jun-13 20:30N 45°44' E 013°38'0 0.0
2017-Jun-13 19:59N 45°44' E 013°38'0 0.0
2017-Jun-13 19:25N 45°44' E 013°38'0 0.0
2017-Jun-13 18:54N 45°44' E 013°38'0 0.1
2017-Jun-13 18:29N 45°44' E 013°38'0 0.1
2017-Jun-13 17:56N 45°44' E 013°38'0 0.0
2017-Jun-13 17:14N 45°44' E 013°38'0 0.0
2017-Jun-13 16:59N 45°44' E 013°38'0 0.0
2017-Jun-13 16:30N 45°44' E 013°38'0 0.0
2017-Jun-13 16:00N 45°44' E 013°38'0 0.0
2017-Jun-13 15:23N 45°44' E 013°38'0 0.0
2017-Jun-13 14:59N 45°44' E 013°38'  

Dump ship's entire track history